Shoreham, United Kingdom

2:47 PM GMT on February 20, 2017 (GMT +0000)
Lancing | | Change Station

Elev 0 ft 50.83 °N, 0.29 °W | Updated 2 minutes ago

Partly Cloudy
Partly Cloudy
51.1 °F
Feels Like 51.1 °F
N
1.2
Wind Variable Wind from West
Gusts 4.3 mph

Today
High -- | Low -- °F
--% Chance of Precip.
Yesterday
High -- | Low -- °F
Precip. -- in
Pressure 30.09 in
Visibility 5.0 miles
Clouds Few 1200 ft
Dew Point 49 °F
Humidity 92%
Rainfall Not available.
Snow Depth Not available.
7:03 AM 5:26 PM
Waning Crescent, 33% visible
METAR EGKA 201420Z 25010KT 8000 FEW012 13/11 Q1019
Pressure 30.09 in
Visibility 5.0 miles
Clouds Few 1200 ft
Dew Point 49 °F
Humidity 92%
Rainfall Not available.
Snow Depth Not available.
7:03 AM 5:26 PM
Waning Crescent, 33% visible
METAR EGKA 201420Z 25010KT 8000 FEW012 13/11 Q1019

Get Your Daily Forecast Email!

Thanks for signing up!

Be on the lookout for a verification email in your inbox.

You'll start receiving the daily forecast at 8 AM.

×

10-Day Weather Forecast

×

Almanac

Astronomy

Feb. 20, 2017 Rise Set
Actual Time
Civil Twilight
Nautical Twilight
Astronomical Twilight
Moon
Length of Visible Light
Length of Day
Tomorrow will be .
, % of the Moon is Illuminated

Today's Extremes

Country Highs Country Lows

Community

WunderPhotos

Upload Photos

1,962,540 photos uploaded!

WunderBlog® & News

Nearby

Air Quality

  Air Quality AQ Index Pollutant
Not available.

Snow Depth

Station Depth Elevation

Earthquake Activity

City Distance Mag. Time & Date
Minimum magnitude displayed is 2.5.

Coastal Water Temperatures

Place Temperature

Stations

Nearby Weather Stations

Station Location Temp. Windchill Dew Point Humidity Wind Precip. Elev Updated Type